Time;durP1;ratioP1;P1;durP2;ratioP2;P2;SDS_P1;SDS_P2;PMS_P1;PMS_P2;Temp;Humidity;BMP_temperature;BMP_pressure;BME280_temperature;BME280_humidity;BME280_pressure;Samples;Min_cycle;Max_cycle;Signal;HPM_P1;HPM_P2
2024/01/09 00:03:08;;;;;;;9.18;4.95;;;;;;;18.84;46.68;98074.84;20881271;28;20060;-56
2024/01/09 00:13:27;;;;;;;7.78;4.75;;;;;;;18.78;46.58;98074.06;20873365;28;20115;-55
2024/01/09 00:23:47;;;;;;;8.30;4.47;;;;;;;18.73;46.83;98074.09;20860400;28;20041;-55
2024/01/09 00:34:07;;;;;;;6.60;4.53;;;;;;;18.67;46.53;98080.66;20916624;28;20044;-56
2024/01/09 00:44:27;;;;;;;9.25;4.93;;;;;;;18.59;46.51;98100.19;20881330;28;20351;-56
2024/01/09 00:54:46;;;;;;;6.32;4.45;;;;;;;18.56;46.43;98100.75;20887677;28;20076;-54
2024/01/09 01:05:06;;;;;;;8.93;4.82;;;;;;;18.52;46.38;98111.31;20876779;28;20347;-54
2024/01/09 01:15:26;;;;;;;5.93;4.25;;;;;;;18.48;46.29;98114.84;20886203;28;20048;-54
2024/01/09 01:25:45;;;;;;;7.60;4.43;;;;;;;18.42;46.48;98111.41;20914272;28;20053;-54
2024/01/09 01:36:05;;;;;;;5.72;4.13;;;;;;;18.38;46.11;98132.78;20922536;28;20052;-54
2024/01/09 01:46:25;;;;;;;5.47;4.40;;;;;;;18.33;46.08;98118.53;20890596;28;20053;-54
2024/01/09 01:56:46;;;;;;;6.57;4.60;;;;;;;18.32;45.99;98128.50;20887842;28;20391;-54
2024/01/09 02:07:07;;;;;;;5.50;4.22;;;;;;;18.25;45.84;98122.63;20885927;28;20152;-54
2024/01/09 02:17:26;;;;;;;5.35;4.22;;;;;;;18.22;45.81;98120.50;20918801;28;20049;-53
2024/01/09 02:27:51;;;;;;;5.07;4.03;;;;;;;18.18;45.57;98122.16;20882898;28;20049;-55
2024/01/09 02:38:11;;;;;;;5.82;4.40;;;;;;;18.16;45.57;98118.94;20885552;28;20049;-54
2024/01/09 02:48:31;;;;;;;6.10;4.75;;;;;;;18.11;45.78;98117.09;20888389;28;20414;-54
2024/01/09 02:58:50;;;;;;;5.43;4.18;;;;;;;18.09;45.57;98118.44;20872030;28;20060;-54
2024/01/09 03:09:11;;;;;;;6.65;4.50;;;;;;;18.05;45.72;98117.41;20882295;28;20052;-54
2024/01/09 03:19:31;;;;;;;5.78;4.43;;;;;;;18.01;45.59;98121.75;20877923;28;20393;-56
2024/01/09 03:29:50;;;;;;;5.70;4.18;;;;;;;17.96;45.58;98120.69;20906688;28;20056;-54
2024/01/09 03:40:11;;;;;;;4.65;4.07;;;;;;;17.91;45.65;98112.63;20890055;28;20106;-54
2024/01/09 03:50:30;;;;;;;4.90;4.10;;;;;;;17.87;45.57;98119.69;20877044;28;20048;-54
2024/01/09 04:00:49;;;;;;;4.68;3.92;;;;;;;17.82;45.39;98113.47;20882621;28;20057;-53
2024/01/09 04:11:09;;;;;;;5.07;4.43;;;;;;;17.77;45.34;98120.53;20870972;28;20066;-54
2024/01/09 04:21:28;;;;;;;7.00;4.32;;;;;;;17.75;45.51;98124.59;20873580;28;20758;-54
2024/01/09 04:31:47;;;;;;;5.47;4.28;;;;;;;17.70;45.23;98128.13;20884505;28;20110;-54
2024/01/09 04:42:07;;;;;;;5.30;4.13;;;;;;;17.66;45.60;98137.88;20883879;28;20045;-56
2024/01/09 04:52:26;;;;;;;5.13;4.00;;;;;;;17.65;45.29;98132.75;20909975;28;20044;-55
2024/01/09 05:02:46;;;;;;;6.10;4.38;;;;;;;17.58;45.41;98130.34;20884371;28;20072;-54
2024/01/09 05:13:06;;;;;;;4.90;3.95;;;;;;;17.56;45.26;98138.72;20890471;28;20186;-56
2024/01/09 05:23:26;;;;;;;5.35;4.85;;;;;;;17.58;46.21;98130.34;20894761;28;20115;-56
2024/01/09 05:33:45;;;;;;;5.45;4.32;;;;;;;17.58;46.75;98131.19;20902217;28;20475;-57
2024/01/09 05:44:05;;;;;;;8.82;5.15;;;;;;;17.61;47.04;98134.41;20875887;28;20053;-58
2024/01/09 05:54:24;;;;;;;6.57;4.57;;;;;;;17.65;47.30;98136.25;20887639;28;20102;-57
2024/01/09 06:04:44;;;;;;;10.40;5.03;;;;;;;17.67;47.40;98133.28;20886535;28;20069;-57
2024/01/09 06:15:03;;;;;;;17.25;6.60;;;;;;;17.69;46.89;98136.50;20920981;28;20766;-57
2024/01/09 06:25:23;;;;;;;16.15;6.65;;;;;;;17.73;46.92;98148.31;20890698;28;20045;-57
2024/01/09 06:35:43;;;;;;;15.00;6.53;;;;;;;17.76;46.91;98156.66;20896136;28;20076;-57
2024/01/09 06:46:02;;;;;;;19.17;6.90;;;;;;;17.82;46.44;98168.22;20921398;28;20060;-58
2024/01/09 06:56:22;;;;;;;16.58;6.85;;;;;;;17.91;46.63;98171.94;20915270;28;20413;-57
2024/01/09 07:06:41;;;;;;;11.98;6.57;;;;;;;17.97;46.04;98181.66;20921642;28;20041;-57
2024/01/09 07:17:03;;;;;;;11.23;6.07;;;;;;;18.08;45.56;98176.97;20893011;28;20049;-57
2024/01/09 07:27:22;;;;;;;10.38;5.85;;;;;;;18.16;44.90;98178.25;20891835;28;20549;-57
2024/01/09 07:37:42;;;;;;;12.10;6.28;;;;;;;18.23;44.92;98191.41;20876470;28;20045;-58
2024/01/09 07:48:03;;;;;;;10.25;6.18;;;;;;;18.36;44.44;98183.47;20889803;28;20056;-57
2024/01/09 07:58:22;;;;;;;10.23;5.72;;;;;;;18.52;43.90;98196.84;20883887;28;20156;-55
2024/01/09 08:08:42;;;;;;;8.57;5.88;;;;;;;18.67;43.83;98194.03;20808674;28;20053;-55
2024/01/09 08:19:04;;;;;;;9.45;6.28;;;;;;;18.79;43.64;98207.13;20815387;28;20053;-55
2024/01/09 08:29:27;;;;;;;9.60;5.65;;;;;;;18.96;43.13;98221.03;20822672;28;20045;-54
2024/01/09 08:39:46;;;;;;;8.20;5.13;;;;;;;19.08;43.24;98225.25;20823144;28;20065;-54
2024/01/09 08:50:07;;;;;;;8.15;5.50;;;;;;;19.21;42.88;98245.38;20822041;28;20391;-55
2024/01/09 09:00:27;;;;;;;9.60;5.78;;;;;;;19.25;43.05;98246.41;20864419;28;20068;-55
2024/01/09 09:10:47;;;;;;;9.95;5.93;;;;;;;19.41;42.62;98247.06;20901642;28;20049;-55
2024/01/09 09:21:06;;;;;;;7.20;5.13;;;;;;;19.50;42.51;98250.72;20901901;28;20559;-54
2024/01/09 09:31:25;;;;;;;8.40;5.63;;;;;;;19.63;42.43;98252.72;20900478;28;20240;-55
2024/01/09 09:41:47;;;;;;;7.00;5.05;;;;;;;19.72;42.24;98237.50;20900187;28;20064;-55
2024/01/09 09:52:08;;;;;;;6.40;4.47;;;;;;;19.80;42.12;98236.06;20926610;28;20095;-55
2024/01/09 10:02:29;;;;;;;6.95;4.80;;;;;;;19.84;41.93;98242.50;20898921;28;20052;-55
2024/01/09 10:12:49;;;;;;;6.30;4.93;;;;;;;19.95;42.03;98238.56;20897881;28;20048;-55
2024/01/09 10:23:08;;;;;;;7.65;4.63;;;;;;;20.05;41.80;98239.50;20903753;28;20409;-56
2024/01/09 10:33:27;;;;;;;7.97;5.20;;;;;;;20.17;41.64;98231.78;20897582;28;20052;-55
2024/01/09 10:43:47;;;;;;;5.78;4.85;;;;;;;20.10;41.72;98217.78;20894924;28;20052;-54
2024/01/09 10:54:08;;;;;;;6.03;4.28;;;;;;;20.12;41.77;98215.59;20894088;28;20072;-54
2024/01/09 11:04:28;;;;;;;5.93;5.00;;;;;;;20.14;41.78;98219.63;20879680;28;20106;-55
2024/01/09 11:14:56;;;;;;;7.45;5.55;;;;;;;20.20;41.73;98209.53;20892131;28;20056;-54
2024/01/09 11:25:22;;;;;;;7.60;4.65;;;;;;;20.20;41.65;98200.59;20878077;28;20057;-57
2024/01/09 11:35:42;;;;;;;6.93;5.07;;;;;;;20.20;41.82;98174.34;20892526;28;20053;-54
2024/01/09 11:46:02;;;;;;;4.95;4.38;;;;;;;20.20;41.79;98174.34;20891052;28;20048;-54
2024/01/09 11:56:23;;;;;;;5.80;4.50;;;;;;;20.13;41.85;98165.78;20891339;28;20111;-53
2024/01/09 12:06:43;;;;;;;5.03;4.53;;;;;;;20.15;41.87;98158.22;20917608;28;20072;-55
2024/01/09 12:17:27;;;;;;;6.03;4.40;;;;;;;20.06;41.85;98152.66;20890184;28;20464;-54
2024/01/09 12:27:47;;;;;;;4.93;4.07;;;;;;;20.10;41.99;98142.84;20889164;28;20060;-54
2024/01/09 12:38:06;;;;;;;6.78;4.63;;;;;;;20.03;42.13;98153.25;20890031;28;20056;-54
2024/01/09 12:48:26;;;;;;;5.03;4.30;;;;;;;20.01;42.20;98143.81;20874468;28;20064;-58
2024/01/09 12:58:47;;;;;;;5.05;4.13;;;;;;;19.95;42.18;98149.31;20887296;28;20057;-58
2024/01/09 13:09:10;;;;;;;5.13;4.13;;;;;;;19.94;42.30;98141.47;20900237;28;20053;-57
2024/01/09 13:19:30;;;;;;;4.88;4.20;;;;;;;19.88;42.41;98145.38;20902096;28;20049;-57
2024/01/09 13:29:50;;;;;;;5.00;4.22;;;;;;;19.86;42.64;98147.56;20927928;28;20044;-55
2024/01/09 13:40:10;;;;;;;5.10;4.20;;;;;;;19.83;42.63;98156.25;20900433;28;20076;-57
2024/01/09 13:50:30;;;;;;;4.53;3.97;;;;;;;19.78;42.68;98151.72;20900444;28;20474;-57
2024/01/09 14:00:49;;;;;;;4.72;3.80;;;;;;;19.71;42.85;98146.66;20908714;28;20088;-53
2024/01/09 14:11:09;;;;;;;4.30;3.90;;;;;;;19.66;42.92;98145.91;20924854;28;20041;-55
2024/01/09 14:21:31;;;;;;;4.43;3.60;;;;;;;19.63;42.92;98157.31;20897303;28;20060;-54
2024/01/09 14:31:51;;;;;;;4.35;3.83;;;;;;;19.54;43.15;98146.34;20895469;28;20052;-54
2024/01/09 14:42:10;;;;;;;4.78;4.00;;;;;;;19.47;43.13;98146.72;20922626;28;20485;-54
2024/01/09 14:52:29;;;;;;;3.97;3.47;;;;;;;19.44;43.05;98141.88;20893942;28;20056;-54
2024/01/09 15:02:51;;;;;;;4.20;3.80;;;;;;;19.38;43.10;98139.53;20894467;28;20061;-54
2024/01/09 15:13:12;;;;;;;4.03;3.60;;;;;;;19.33;43.15;98149.31;20894183;28;20095;-58
2024/01/09 15:23:32;;;;;;;3.85;3.25;;;;;;;19.30;43.11;98151.78;20893844;28;20052;-55
2024/01/09 15:33:52;;;;;;;4.15;3.75;;;;;;;19.22;43.31;98144.34;20892291;28;20056;-56
2024/01/09 15:44:11;;;;;;;3.97;3.38;;;;;;;19.14;43.23;98143.88;20917704;28;20517;-57
2024/01/09 15:54:37;;;;;;;4.65;3.42;;;;;;;19.10;43.22;98152.84;20891358;28;20049;-57
2024/01/09 16:04:57;;;;;;;3.93;3.40;;;;;;;19.11;43.17;98154.44;20917902;28;20045;-55
2024/01/09 16:15:17;;;;;;;4.38;3.60;;;;;;;19.11;43.00;98159.84;20875139;28;20455;-54
2024/01/09 16:25:37;;;;;;;3.88;3.47;;;;;;;19.12;42.68;98151.47;20890607;28;20049;-54
2024/01/09 16:35:56;;;;;;;4.50;3.15;;;;;;;19.11;42.98;98157.97;20917280;28;20401;-54
2024/01/09 16:46:16;;;;;;;3.45;3.13;;;;;;;19.21;42.59;98158.91;20900604;28;20065;-54
2024/01/09 16:56:37;;;;;;;4.53;4.13;;;;;;;19.21;41.01;98167.03;20901300;28;20057;-55
2024/01/09 17:06:56;;;;;;;7.13;3.58;;;;;;;19.26;41.76;98167.78;20927918;28;20060;-53
2024/01/09 17:17:17;;;;;;;6.50;3.80;;;;;;;19.37;42.40;98163.06;20912129;28;20555;-60
2024/01/09 17:27:38;;;;;;;7.13;3.50;;;;;;;19.43;42.71;98164.59;20928757;28;20099;-50
2024/01/09 17:37:57;;;;;;;4.22;3.50;;;;;;;19.51;42.82;98161.25;20930312;28;20075;-53
2024/01/09 17:48:19;;;;;;;4.15;3.22;;;;;;;19.58;42.75;98158.16;20951675;28;20037;-52
2024/01/09 17:58:39;;;;;;;4.68;3.50;;;;;;;19.66;42.71;98167.53;20921926;28;20336;-52
2024/01/09 18:08:59;;;;;;;4.10;3.70;;;;;;;19.75;42.75;98174.72;20898564;28;20057;-54
2024/01/09 18:19:19;;;;;;;4.13;3.58;;;;;;;19.86;42.38;98175.41;20967394;28;20086;-53
2024/01/09 18:29:38;;;;;;;5.00;3.88;;;;;;;19.89;42.19;98182.13;20919780;28;20044;-52
2024/01/09 18:39:58;;;;;;;5.47;3.67;;;;;;;19.97;42.29;98180.66;20957949;28;20064;-59
2024/01/09 18:50:18;;;;;;;4.10;3.45;;;;;;;20.02;42.09;98184.09;20919858;28;20055;-54
2024/01/09 19:00:38;;;;;;;4.38;3.50;;;;;;;20.09;41.81;98167.47;20963836;28;20507;-53
2024/01/09 19:10:57;;;;;;;6.07;4.00;;;;;;;20.17;42.80;98169.53;20912018;28;20048;-55
2024/01/09 19:21:17;;;;;;;6.47;4.38;;;;;;;20.08;43.33;98165.88;20890225;28;20041;-55
2024/01/09 19:31:43;;;;;;;6.47;4.00;;;;;;;20.10;43.79;98174.50;20893887;28;20068;-55
2024/01/09 19:42:03;;;;;;;8.35;4.30;;;;;;;20.10;44.24;98185.34;20900991;28;20060;-59
2024/01/09 19:52:23;;;;;;;6.85;3.92;;;;;;;20.15;44.72;98169.81;20931305;28;20048;-59
2024/01/09 20:02:42;;;;;;;5.18;3.75;;;;;;;20.11;44.79;98160.69;20893552;28;20505;-55
2024/01/09 20:13:05;;;;;;;6.85;4.13;;;;;;;20.03;44.35;98161.38;20905752;28;20048;-54
2024/01/09 20:23:24;;;;;;;10.52;4.05;;;;;;;19.95;44.52;98162.00;20956338;28;20071;-55
2024/01/09 20:33:45;;;;;;;7.05;4.35;;;;;;;19.89;44.40;98182.91;20951447;28;20041;-55
2024/01/09 20:44:06;;;;;;;6.03;4.15;;;;;;;19.87;44.44;98163.47;20942410;28;20048;-59
2024/01/09 20:54:26;;;;;;;15.18;4.32;;;;;;;19.81;44.36;98161.94;20944006;28;20383;-60
2024/01/09 21:04:46;;;;;;;6.47;3.75;;;;;;;19.75;44.35;98155.00;20922792;28;20060;-59
2024/01/09 21:15:08;;;;;;;5.60;4.05;;;;;;;19.72;44.23;98156.41;20942667;28;20040;-59
2024/01/09 21:25:27;;;;;;;6.25;4.18;;;;;;;19.78;46.47;98159.00;20905625;28;20056;-63
2024/01/09 21:35:48;;;;;;;8.38;4.10;;;;;;;19.72;46.29;98142.88;20892122;28;20053;-57
2024/01/09 21:46:08;;;;;;;5.95;4.30;;;;;;;19.70;46.39;98144.25;20957063;28;20062;-57
2024/01/09 21:56:27;;;;;;;7.72;4.30;;;;;;;19.65;46.40;98147.00;20930895;28;20056;-57
2024/01/09 22:06:47;;;;;;;6.45;4.38;;;;;;;19.55;46.27;98147.97;20891261;28;20045;-57
2024/01/09 22:17:06;;;;;;;6.00;4.20;;;;;;;19.55;46.09;98143.34;20813680;28;20080;-57
2024/01/09 22:27:26;;;;;;;5.47;4.25;;;;;;;19.52;46.00;98149.34;20815655;28;20042;-57
2024/01/09 22:37:46;;;;;;;5.45;3.85;;;;;;;19.47;45.69;98149.41;20840323;28;20076;-57
2024/01/09 22:48:05;;;;;;;7.15;4.70;;;;;;;19.39;45.54;98151.97;20811185;28;20421;-56
2024/01/09 22:58:25;;;;;;;8.55;4.68;;;;;;;19.32;45.51;98136.88;20820433;28;20057;-57
2024/01/09 23:08:45;;;;;;;5.45;3.97;;;;;;;19.25;45.31;98117.53;20887336;28;20053;-57
2024/01/09 23:19:05;;;;;;;5.90;4.15;;;;;;;19.20;45.53;98100.59;20889199;28;20080;-57
2024/01/09 23:29:24;;;;;;;5.78;3.92;;;;;;;19.20;45.34;98106.00;20885804;28;20098;-54
2024/01/09 23:39:44;;;;;;;5.32;4.10;;;;;;;19.09;45.36;98083.69;20904817;28;20452;-55
2024/01/09 23:50:04;;;;;;;5.45;3.95;;;;;;;19.02;45.25;98081.38;20903188;28;20053;-55
